Time;durP1;ratioP1;P1;durP2;ratioP2;P2;SDS_P1;SDS_P2;PMS_P1;PMS_P2;Temp;Humidity;BMP_temperature;BMP_pressure;BME280_temperature;BME280_humidity;BME280_pressure;Samples;Min_cycle;Max_cycle;Signal;HPM_P1;HPM_P2
2021/06/08 00:01:15;;;;;;;8.95;6.22;;;;;;;;;;4373586;32;21120;-59
2021/06/08 00:03:40;;;;;;;11.52;6.78;;;;;;;;;;4373688;32;20210;-60
2021/06/08 00:06:06;;;;;;;9.10;6.05;;;;;;;;;;4373016;32;20210;-59
2021/06/08 00:08:31;;;;;;;8.27;6.12;;;;;;;;;;4373404;32;20233;-60
2021/06/08 00:10:56;;;;;;;11.27;6.82;;;;;;;;;;4371897;32;20313;-59
2021/06/08 00:13:22;;;;;;;11.35;5.45;;;;;;;;;;4373204;32;20602;-59
2021/06/08 00:15:48;;;;;;;7.12;5.22;;;;;;;;;;4372733;32;20261;-60
2021/06/08 00:18:13;;;;;;;11.73;5.80;;;;;;;;;;4373357;32;20313;-59
2021/06/08 00:20:39;;;;;;;13.73;5.87;;;;;;;;;;4373311;32;20288;-59
2021/06/08 00:23:04;;;;;;;11.48;6.60;;;;;;;;;;4373051;32;20289;-58
2021/06/08 00:25:30;;;;;;;7.87;6.97;;;;;;;;;;4373142;32;20334;-58
2021/06/08 00:27:57;;;;;;;8.25;6.00;;;;;;;;;;4373233;32;20238;-58
2021/06/08 00:30:23;;;;;;;7.72;6.18;;;;;;;;;;4371684;32;20339;-58
2021/06/08 00:32:49;;;;;;;12.50;6.50;;;;;;;;;;4384662;32;20234;-59
2021/06/08 00:35:15;;;;;;;7.32;6.55;;;;;;;;;;4372308;32;20289;-58
2021/06/08 00:37:40;;;;;;;7.90;5.20;;;;;;;;;;4372816;32;20230;-58
2021/06/08 00:40:06;;;;;;;9.57;6.43;;;;;;;;;;4373158;32;20240;-58
2021/06/08 00:42:35;;;;;;;12.73;6.30;;;;;;;;;;4371964;32;20264;-58
2021/06/08 00:45:00;;;;;;;8.40;7.57;;;;;;;;;;4372889;32;20639;-59
2021/06/08 00:47:26;;;;;;;15.70;9.25;;;;;;;;;;4373190;32;20293;-60
2021/06/08 00:49:52;;;;;;;9.55;7.35;;;;;;;;;;4372950;32;20653;-59
2021/06/08 00:52:18;;;;;;;8.40;6.35;;;;;;;;;;4373106;32;20214;-59
2021/06/08 00:54:44;;;;;;;7.97;6.15;;;;;;;;;;4372893;32;20273;-59
2021/06/08 00:57:10;;;;;;;12.27;6.47;;;;;;;;;;4372379;32;20670;-60
2021/06/08 00:59:35;;;;;;;8.65;6.35;;;;;;;;;;4372650;32;20495;-60
2021/06/08 01:02:01;;;;;;;6.82;5.45;;;;;;;;;;4371545;32;20221;-60
2021/06/08 01:04:27;;;;;;;8.85;5.20;;;;;;;;;;4372622;32;20285;-60
2021/06/08 01:06:52;;;;;;;12.90;5.43;;;;;;;;;;4372607;32;20301;-60
2021/06/08 01:09:18;;;;;;;6.05;5.40;;;;;;;;;;4372932;32;20198;-60
2021/06/08 01:11:43;;;;;;;14.57;5.93;;;;;;;;;;4372945;32;20863;-60
2021/06/08 01:14:09;;;;;;;7.28;5.75;;;;;;;;;;4372735;32;20190;-60
2021/06/08 01:16:35;;;;;;;7.05;4.97;;;;;;;;;;4372736;32;20612;-60
2021/06/08 01:19:01;;;;;;;8.25;5.18;;;;;;;;;;4372659;32;20215;-60
2021/06/08 01:21:28;;;;;;;7.62;5.62;;;;;;;;;;4372885;32;20646;-60
2021/06/08 01:23:55;;;;;;;7.72;5.50;;;;;;;;;;4383947;32;20307;-60
2021/06/08 01:26:24;;;;;;;6.70;5.10;;;;;;;;;;4372613;32;20610;-60
2021/06/08 01:28:50;;;;;;;12.55;5.72;;;;;;;;;;4372398;32;20206;-60
2021/06/08 01:31:19;;;;;;;7.12;4.80;;;;;;;;;;4367047;32;20214;-60
2021/06/08 01:33:46;;;;;;;10.48;5.40;;;;;;;;;;4357607;33;20629;-59
2021/06/08 01:36:14;;;;;;;10.40;6.10;;;;;;;;;;4357664;33;20325;-59
2021/06/08 01:38:40;;;;;;;10.18;5.68;;;;;;;;;;4357667;33;20281;-60
2021/06/08 01:41:07;;;;;;;6.85;5.97;;;;;;;;;;4357849;33;20248;-60
2021/06/08 01:43:33;;;;;;;7.78;5.55;;;;;;;;;;4357312;33;20218;-59
2021/06/08 01:45:58;;;;;;;7.75;5.62;;;;;;;;;;4356213;33;20308;-59
2021/06/08 01:48:24;;;;;;;10.40;5.85;;;;;;;;;;4356452;33;20803;-59
2021/06/08 01:50:50;;;;;;;8.43;5.37;;;;;;;;;;4365172;32;20261;-59
2021/06/08 01:53:22;;;;;;;7.87;5.90;;;;;;;;;;4372455;32;20594;-59
2021/06/08 01:55:51;;;;;;;13.48;5.47;;;;;;;;;;4372753;32;20606;-60
2021/06/08 01:58:45;;;;;;;6.20;5.60;;;;;;;;;;4372148;32;20566;-59
2021/06/08 02:01:30;;;;;;;10.70;6.32;;;;;;;;;;4369928;32;20230;-58
2021/06/08 02:04:02;;;;;;;7.25;6.20;;;;;;;;;;4372786;32;20233;-59
2021/06/08 02:06:42;;;;;;;7.20;6.00;;;;;;;;;;4372395;32;20234;-58
2021/06/08 02:09:41;;;;;;;9.60;5.37;;;;;;;;;;4375473;32;20222;-59
2021/06/08 02:12:16;;;;;;;15.43;6.30;;;;;;;;;;4374380;32;20321;-59
2021/06/08 02:15:09;;;;;;;10.23;5.87;;;;;;;;;;4375452;32;20193;-59
2021/06/08 02:17:48;;;;;;;16.23;5.75;;;;;;;;;;4375396;32;20360;-59
2021/06/08 02:20:26;;;;;;;8.15;5.80;;;;;;;;;;4375094;32;20300;-59
2021/06/08 02:22:57;;;;;;;10.07;6.03;;;;;;;;;;4374306;32;20258;-59
2021/06/08 02:25:26;;;;;;;8.98;5.32;;;;;;;;;;4375290;32;20197;-59
2021/06/08 02:27:54;;;;;;;8.00;5.85;;;;;;;;;;4374827;32;20353;-58
2021/06/08 02:30:22;;;;;;;6.12;5.55;;;;;;;;;;4370541;32;20198;-58
2021/06/08 02:32:50;;;;;;;8.02;5.80;;;;;;;;;;4374964;32;20214;-58
2021/06/08 02:35:19;;;;;;;7.32;5.82;;;;;;;;;;4374773;32;20232;-58
2021/06/08 02:37:46;;;;;;;6.03;5.40;;;;;;;;;;4374867;32;20377;-58
2021/06/08 02:40:13;;;;;;;8.07;5.65;;;;;;;;;;4374790;32;20233;-59
2021/06/08 02:42:39;;;;;;;9.32;6.68;;;;;;;;;;4373746;32;20590;-59
2021/06/08 02:45:05;;;;;;;6.25;5.62;;;;;;;;;;4374736;32;20280;-60
2021/06/08 02:47:31;;;;;;;9.70;5.93;;;;;;;;;;4373938;32;20222;-58
2021/06/08 02:49:59;;;;;;;7.18;6.47;;;;;;;;;;4372356;32;20671;-58
2021/06/08 02:52:25;;;;;;;7.65;6.35;;;;;;;;;;4359831;32;20309;-58
2021/06/08 02:54:52;;;;;;;18.17;6.37;;;;;;;;;;4359728;32;20229;-58
2021/06/08 02:57:22;;;;;;;6.95;5.75;;;;;;;;;;4359900;32;20242;-58
2021/06/08 02:59:50;;;;;;;9.98;5.93;;;;;;;;;;4371999;32;20246;-60
2021/06/08 03:02:17;;;;;;;8.75;5.97;;;;;;;;;;4374477;32;20681;-59
2021/06/08 03:04:57;;;;;;;12.37;6.05;;;;;;;;;;4374720;32;20225;-58
2021/06/08 03:07:25;;;;;;;7.85;6.30;;;;;;;;;;4374390;32;20575;-58
2021/06/08 03:09:57;;;;;;;10.27;6.78;;;;;;;;;;4374485;32;20233;-58
2021/06/08 03:12:28;;;;;;;6.07;5.55;;;;;;;;;;4374542;32;20205;-58
2021/06/08 03:14:54;;;;;;;6.62;5.72;;;;;;;;;;4374274;32;20194;-59
2021/06/08 03:17:24;;;;;;;4.90;4.35;;;;;;;;;;4374739;32;20295;-58
2021/06/08 03:19:52;;;;;;;10.98;5.32;;;;;;;;;;4373738;32;20229;-60
2021/06/08 03:22:20;;;;;;;6.12;4.62;;;;;;;;;;4374383;32;20539;-60
2021/06/08 03:24:49;;;;;;;14.48;4.80;;;;;;;;;;4374182;32;20194;-59
2021/06/08 03:27:16;;;;;;;5.65;4.43;;;;;;;;;;4374082;32;20325;-59
2021/06/08 03:29:42;;;;;;;8.80;5.35;;;;;;;;;;4374009;32;20276;-58
2021/06/08 03:32:09;;;;;;;6.62;4.78;;;;;;;;;;4363544;32;20639;-58
2021/06/08 03:34:37;;;;;;;6.32;5.20;;;;;;;;;;4359024;32;20281;-59
2021/06/08 03:37:04;;;;;;;6.78;5.47;;;;;;;;;;4358964;32;20222;-58
2021/06/08 03:39:30;;;;;;;6.95;6.25;;;;;;;;;;4358898;32;20221;-59
2021/06/08 03:41:56;;;;;;;14.50;6.87;;;;;;;;;;4359157;32;20384;-59
2021/06/08 03:44:22;;;;;;;8.43;5.62;;;;;;;;;;4358832;32;20229;-59
2021/06/08 03:46:50;;;;;;;13.10;6.75;;;;;;;;;;4359071;32;20223;-59
2021/06/08 03:49:20;;;;;;;8.70;6.03;;;;;;;;;;4358806;32;20195;-59
2021/06/08 03:51:50;;;;;;;17.52;6.37;;;;;;;;;;4372576;32;20248;-60
2021/06/08 03:54:16;;;;;;;9.55;5.90;;;;;;;;;;4373795;32;20220;-60
2021/06/08 03:56:43;;;;;;;15.30;7.55;;;;;;;;;;4373602;32;20293;-59
2021/06/08 03:59:13;;;;;;;17.30;7.15;;;;;;;;;;4373399;32;20356;-59
2021/06/08 04:01:39;;;;;;;11.63;7.40;;;;;;;;;;4373747;32;20570;-60
2021/06/08 04:04:05;;;;;;;7.00;6.30;;;;;;;;;;4373881;32;20269;-59
2021/06/08 04:06:33;;;;;;;12.63;6.62;;;;;;;;;;4373503;32;20253;-60
2021/06/08 04:09:11;;;;;;;10.25;7.03;;;;;;;;;;4373627;32;20607;-59
2021/06/08 04:11:38;;;;;;;15.73;7.32;;;;;;;;;;4384857;32;20253;-58
2021/06/08 04:14:04;;;;;;;11.75;7.18;;;;;;;;;;4373304;32;20591;-59
2021/06/08 04:16:30;;;;;;;14.20;6.80;;;;;;;;;;4373469;32;20244;-59
2021/06/08 04:18:56;;;;;;;9.38;7.40;;;;;;;;;;4373487;32;20219;-60
2021/06/08 04:21:23;;;;;;;9.90;8.05;;;;;;;;;;4372438;32;20304;-60
2021/06/08 04:23:59;;;;;;;10.25;7.22;;;;;;;;;;4373409;32;20634;-59
2021/06/08 04:26:25;;;;;;;8.70;7.82;;;;;;;;;;4373383;32;20289;-60
2021/06/08 04:28:51;;;;;;;10.43;7.25;;;;;;;;;;4372944;32;20206;-60
2021/06/08 04:31:17;;;;;;;11.63;7.12;;;;;;;;;;4367607;32;20265;-60
2021/06/08 04:33:45;;;;;;;14.18;6.55;;;;;;;;;;4358311;32;20503;-59
2021/06/08 04:36:13;;;;;;;14.68;8.07;;;;;;;;;;4358426;32;20642;-58
2021/06/08 04:38:39;;;;;;;12.37;6.97;;;;;;;;;;4356892;32;20249;-59
2021/06/08 04:41:05;;;;;;;12.02;7.40;;;;;;;;;;4358129;32;20773;-59
2021/06/08 04:43:31;;;;;;;14.38;7.90;;;;;;;;;;4358242;32;20587;-60
2021/06/08 04:46:05;;;;;;;26.05;7.90;;;;;;;;;;4356951;32;20261;-60
2021/06/08 04:48:31;;;;;;;21.85;7.65;;;;;;;;;;4358405;32;20211;-59
2021/06/08 04:50:56;;;;;;;12.13;6.75;;;;;;;;;;4366324;32;20391;-60
2021/06/08 04:53:22;;;;;;;11.32;6.78;;;;;;;;;;4372223;32;20230;-59
2021/06/08 04:55:49;;;;;;;7.18;6.37;;;;;;;;;;4373963;32;20253;-59
2021/06/08 04:58:14;;;;;;;11.65;7.25;;;;;;;;;;4378109;32;20321;-59
2021/06/08 05:00:55;;;;;;;9.82;6.70;;;;;;;;;;4373313;32;20344;-60
2021/06/08 05:03:25;;;;;;;7.12;6.45;;;;;;;;;;4381333;32;20332;-59
2021/06/08 05:05:54;;;;;;;14.05;6.75;;;;;;;;;;4376028;32;20232;-61
2021/06/08 05:08:32;;;;;;;10.32;6.20;;;;;;;;;;4374052;32;20233;-60
2021/06/08 05:11:01;;;;;;;10.27;6.60;;;;;;;;;;4383343;32;20235;-60
2021/06/08 05:13:29;;;;;;;18.52;6.97;;;;;;;;;;4375633;32;20218;-59
2021/06/08 05:15:56;;;;;;;10.75;6.87;;;;;;;;;;4380370;32;20253;-58
2021/06/08 05:18:23;;;;;;;11.45;6.57;;;;;;;;;;4386211;32;20546;-58
2021/06/08 05:20:49;;;;;;;17.65;7.68;;;;;;;;;;4382752;32;20209;-59
2021/06/08 05:23:15;;;;;;;11.50;6.82;;;;;;;;;;4377832;32;20304;-61
2021/06/08 05:25:43;;;;;;;16.58;7.40;;;;;;;;;;4376221;32;20317;-58
2021/06/08 05:28:12;;;;;;;11.10;7.12;;;;;;;;;;4380553;32;20233;-59
2021/06/08 05:30:38;;;;;;;11.23;6.45;;;;;;;;;;4380712;32;20622;-58
2021/06/08 05:33:04;;;;;;;8.35;6.18;;;;;;;;;;4373131;32;20351;-58
2021/06/08 05:35:30;;;;;;;12.82;6.97;;;;;;;;;;4373225;32;20281;-59
2021/06/08 05:38:06;;;;;;;15.32;8.18;;;;;;;;;;4373250;32;20218;-58
2021/06/08 05:40:32;;;;;;;13.02;8.68;;;;;;;;;;4367708;32;20214;-60
2021/06/08 05:42:58;;;;;;;13.23;7.28;;;;;;;;;;4358313;32;20700;-60
2021/06/08 05:45:23;;;;;;;14.23;6.45;;;;;;;;;;4359387;32;20643;-58
2021/06/08 05:47:49;;;;;;;10.93;7.18;;;;;;;;;;4357578;32;20313;-62
2021/06/08 05:50:16;;;;;;;13.95;7.85;;;;;;;;;;4367057;32;20412;-60
2021/06/08 05:52:42;;;;;;;12.75;8.63;;;;;;;;;;4376179;32;20560;-58
2021/06/08 05:55:10;;;;;;;10.82;8.57;;;;;;;;;;4373409;32;20273;-60
2021/06/08 05:57:36;;;;;;;9.07;7.20;;;;;;;;;;4385527;32;20559;-58
2021/06/08 06:00:04;;;;;;;9.43;7.87;;;;;;;;;;4386858;32;20231;-60
2021/06/08 06:02:33;;;;;;;18.45;8.55;;;;;;;;;;4376887;32;20253;-59
2021/06/08 06:04:59;;;;;;;14.15;8.32;;;;;;;;;;4377161;32;20248;-58
2021/06/08 06:07:26;;;;;;;14.02;7.95;;;;;;;;;;4376608;32;20341;-60
2021/06/08 06:09:52;;;;;;;16.52;8.65;;;;;;;;;;4378269;32;20239;-60
2021/06/08 06:12:19;;;;;;;19.90;9.68;;;;;;;;;;4380344;32;20229;-58
2021/06/08 06:14:47;;;;;;;20.30;9.98;;;;;;;;;;4377525;32;20265;-60
2021/06/08 06:17:13;;;;;;;17.60;9.82;;;;;;;;;;4375749;32;20246;-59
2021/06/08 06:19:39;;;;;;;22.33;9.02;;;;;;;;;;4365552;32;20551;-59
2021/06/08 06:22:05;;;;;;;10.85;8.85;;;;;;;;;;4390777;32;20322;-58
2021/06/08 06:24:33;;;;;;;19.80;8.15;;;;;;;;;;4382863;32;20218;-58
2021/06/08 06:26:59;;;;;;;9.35;7.50;;;;;;;;;;4385158;32;20312;-60
2021/06/08 06:29:25;;;;;;;9.88;7.97;;;;;;;;;;4375697;32;20661;-58
2021/06/08 06:31:53;;;;;;;16.10;8.02;;;;;;;;;;4365006;32;20348;-60
2021/06/08 06:34:22;;;;;;;16.52;7.95;;;;;;;;;;4364532;32;20364;-58
2021/06/08 06:36:48;;;;;;;9.82;7.18;;;;;;;;;;4374028;32;20226;-59
2021/06/08 06:39:17;;;;;;;10.05;7.28;;;;;;;;;;4374720;32;20304;-58
2021/06/08 06:41:46;;;;;;;16.65;7.45;;;;;;;;;;4366822;32;20240;-58
2021/06/08 06:44:13;;;;;;;15.18;7.93;;;;;;;;;;4370059;32;20298;-58
2021/06/08 06:46:40;;;;;;;13.02;7.30;;;;;;;;;;4361307;32;20261;-58
2021/06/08 06:49:06;;;;;;;21.42;7.55;;;;;;;;;;4365974;32;20244;-58
2021/06/08 06:51:32;;;;;;;8.48;7.12;;;;;;;;;;4361044;32;20338;-58
2021/06/08 06:53:59;;;;;;;9.70;6.95;;;;;;;;;;4371398;32;20305;-57
2021/06/08 06:56:25;;;;;;;11.05;8.77;;;;;;;;;;4366738;32;20680;-57
2021/06/08 06:58:51;;;;;;;9.82;7.03;;;;;;;;;;4367329;32;20984;-60
2021/06/08 07:01:24;;;;;;;19.70;7.25;;;;;;;;;;4362325;32;20320;-58
2021/06/08 07:03:53;;;;;;;9.13;6.62;;;;;;;;;;4360645;32;20236;-58
2021/06/08 07:06:19;;;;;;;7.55;6.85;;;;;;;;;;4364830;32;20336;-60
2021/06/08 07:08:50;;;;;;;12.77;8.18;;;;;;;;;;4381870;32;20317;-60
2021/06/08 07:11:16;;;;;;;12.32;7.93;;;;;;;;;;4358332;32;20229;-58
2021/06/08 07:13:43;;;;;;;6.97;6.15;;;;;;;;;;4359688;32;20312;-57
2021/06/08 07:16:08;;;;;;;7.05;6.32;;;;;;;;;;4364838;32;20218;-57
2021/06/08 07:18:34;;;;;;;16.87;6.93;;;;;;;;;;4373004;32;20307;-58
2021/06/08 07:21:01;;;;;;;11.32;6.93;;;;;;;;;;4363511;32;20281;-58
2021/06/08 07:23:28;;;;;;;7.22;5.82;;;;;;;;;;4362497;32;20339;-60
2021/06/08 07:25:53;;;;;;;10.50;6.30;;;;;;;;;;4363978;32;20206;-60
2021/06/08 07:28:20;;;;;;;12.18;6.97;;;;;;;;;;4362341;32;20228;-59
2021/06/08 07:30:46;;;;;;;10.88;5.93;;;;;;;;;;4371251;32;20882;-58
2021/06/08 07:33:21;;;;;;;9.27;6.45;;;;;;;;;;4371794;32;20353;-60
2021/06/08 07:36:08;;;;;;;10.45;6.75;;;;;;;;;;4363631;32;20643;-60
2021/06/08 07:38:40;;;;;;;11.27;6.32;;;;;;;;;;4368157;32;20301;-59
2021/06/08 07:41:13;;;;;;;8.63;6.30;;;;;;;;;;4367533;32;20293;-59
2021/06/08 07:43:46;;;;;;;10.77;6.47;;;;;;;;;;4361315;32;20230;-58
2021/06/08 07:46:17;;;;;;;18.23;6.20;;;;;;;;;;4372791;32;20308;-59
2021/06/08 07:48:45;;;;;;;7.78;5.18;;;;;;;;;;4365357;32;20621;-59
2021/06/08 07:51:11;;;;;;;5.70;5.10;;;;;;;;;;4357928;32;20647;-59
2021/06/08 07:53:38;;;;;;;9.07;5.12;;;;;;;;;;4366538;32;21193;-60
2021/06/08 07:56:04;;;;;;;6.50;5.78;;;;;;;;;;4372632;32;20332;-58
2021/06/08 07:58:30;;;;;;;10.48;5.35;;;;;;;;;;4357756;32;20621;-57
2021/06/08 08:00:58;;;;;;;5.50;5.00;;;;;;;;;;4357776;32;20328;-57
2021/06/08 08:03:28;;;;;;;11.93;5.97;;;;;;;;;;4362330;32;20218;-58
2021/06/08 08:06:08;;;;;;;9.82;6.47;;;;;;;;;;4365918;32;20203;-60
2021/06/08 08:08:36;;;;;;;7.20;5.65;;;;;;;;;;4367577;32;20288;-59
2021/06/08 08:11:07;;;;;;;7.75;5.90;;;;;;;;;;4371141;32;20718;-59
2021/06/08 08:13:33;;;;;;;14.80;7.18;;;;;;;;;;4370532;32;20203;-59
2021/06/08 08:16:05;;;;;;;10.10;4.97;;;;;;;;;;4366877;32;20301;-58
2021/06/08 08:18:32;;;;;;;6.05;5.03;;;;;;;;;;4372573;32;20696;-57
2021/06/08 08:20:58;;;;;;;5.22;4.72;;;;;;;;;;4360652;32;20640;-59
2021/06/08 08:23:27;;;;;;;8.25;5.53;;;;;;;;;;4372777;32;20241;-58
2021/06/08 08:25:56;;;;;;;7.22;5.90;;;;;;;;;;4371348;32;20218;-57
2021/06/08 08:28:21;;;;;;;6.93;5.50;;;;;;;;;;4360546;32;20300;-57
2021/06/08 08:30:47;;;;;;;6.40;5.80;;;;;;;;;;4369306;32;20285;-60
2021/06/08 08:33:12;;;;;;;11.05;5.00;;;;;;;;;;4368139;32;20317;-58
2021/06/08 08:35:39;;;;;;;9.57;4.57;;;;;;;;;;4357046;32;20290;-60
2021/06/08 08:38:05;;;;;;;4.90;4.37;;;;;;;;;;4357527;32;20404;-58
2021/06/08 08:40:31;;;;;;;4.43;3.72;;;;;;;;;;4369250;32;20764;-57
2021/06/08 08:43:01;;;;;;;10.50;5.12;;;;;;;;;;4382792;32;20226;-57
2021/06/08 08:45:30;;;;;;;4.68;4.20;;;;;;;;;;4371146;32;20364;-58
2021/06/08 08:47:56;;;;;;;5.70;4.20;;;;;;;;;;4358575;32;20301;-58
2021/06/08 08:50:22;;;;;;;4.97;4.55;;;;;;;;;;4365174;32;20311;-57
2021/06/08 08:52:58;;;;;;;5.78;4.25;;;;;;;;;;4363734;32;20305;-57
2021/06/08 08:55:25;;;;;;;6.37;4.43;;;;;;;;;;4367803;32;20291;-58
2021/06/08 08:57:52;;;;;;;5.28;3.95;;;;;;;;;;4364492;32;20270;-57
2021/06/08 09:00:19;;;;;;;6.12;4.72;;;;;;;;;;4367017;32;20221;-58
2021/06/08 09:02:45;;;;;;;4.45;3.80;;;;;;;;;;4365907;32;20447;-58
2021/06/08 09:05:11;;;;;;;11.43;4.55;;;;;;;;;;4364634;32;20533;-58
2021/06/08 09:07:37;;;;;;;12.27;3.92;;;;;;;;;;4368441;32;20384;-57
2021/06/08 09:10:09;;;;;;;4.87;3.97;;;;;;;;;;4357625;32;20630;-57
2021/06/08 09:12:35;;;;;;;5.57;4.15;;;;;;;;;;4362653;32;20746;-58
2021/06/08 09:15:04;;;;;;;5.62;4.22;;;;;;;;;;4367106;32;20317;-58
2021/06/08 09:17:30;;;;;;;8.88;4.75;;;;;;;;;;4355201;32;20241;-59
2021/06/08 09:19:56;;;;;;;5.50;4.87;;;;;;;;;;4364127;32;20552;-58
2021/06/08 09:22:22;;;;;;;6.87;4.82;;;;;;;;;;4369503;32;20601;-58
2021/06/08 09:24:54;;;;;;;8.15;4.22;;;;;;;;;;4355419;32;20242;-57
2021/06/08 09:27:27;;;;;;;5.03;4.53;;;;;;;;;;4356701;32;20244;-58
2021/06/08 09:29:52;;;;;;;4.80;4.30;;;;;;;;;;4370513;32;20226;-58
2021/06/08 09:32:22;;;;;;;4.20;3.80;;;;;;;;;;4359361;32;20599;-57
2021/06/08 09:34:50;;;;;;;5.97;3.55;;;;;;;;;;4358847;32;20686;-58
2021/06/08 09:37:28;;;;;;;9.35;3.83;;;;;;;;;;4360659;32;20254;-57
2021/06/08 09:39:53;;;;;;;7.37;3.58;;;;;;;;;;4355480;32;20225;-58
2021/06/08 09:42:37;;;;;;;3.95;3.42;;;;;;;;;;4358715;32;20247;-58
2021/06/08 09:45:11;;;;;;;6.95;5.40;;;;;;;;;;4359226;32;20254;-57
2021/06/08 09:47:36;;;;;;;4.55;3.12;;;;;;;;;;4356102;32;20439;-57
2021/06/08 09:50:22;;;;;;;7.20;3.30;;;;;;;;;;4365248;32;20221;-58
2021/06/08 09:52:47;;;;;;;4.40;3.28;;;;;;;;;;4366696;32;20422;-58
2021/06/08 09:55:13;;;;;;;5.75;2.90;;;;;;;;;;4360802;32;20625;-58
2021/06/08 09:57:38;;;;;;;10.25;3.40;;;;;;;;;;4364975;32;20756;-58
2021/06/08 10:00:05;;;;;;;4.80;3.47;;;;;;;;;;4369268;32;20341;-58
2021/06/08 10:02:44;;;;;;;3.92;3.35;;;;;;;;;;4359017;32;20261;-58
2021/06/08 10:05:36;;;;;;;4.90;3.03;;;;;;;;;;4370783;32;20253;-57
2021/06/08 10:08:01;;;;;;;3.50;3.00;;;;;;;;;;4355753;32;20364;-57
2021/06/08 10:10:45;;;;;;;8.95;3.62;;;;;;;;;;4356065;32;20281;-59
2021/06/08 10:13:15;;;;;;;12.27;4.00;;;;;;;;;;4360407;32;20753;-58
2021/06/08 10:15:58;;;;;;;8.02;3.72;;;;;;;;;;4363131;32;20296;-57
2021/06/08 10:18:25;;;;;;;6.57;3.72;;;;;;;;;;4368442;32;20576;-59
2021/06/08 10:20:52;;;;;;;6.07;3.72;;;;;;;;;;4366237;32;20245;-59
2021/06/08 10:23:20;;;;;;;10.88;4.60;;;;;;;;;;4360744;32;20210;-58
2021/06/08 10:25:47;;;;;;;9.52;4.53;;;;;;;;;;4355292;32;20832;-59
2021/06/08 10:28:15;;;;;;;6.12;3.60;;;;;;;;;;4366580;32;20543;-58
2021/06/08 10:30:44;;;;;;;6.60;3.67;;;;;;;;;;4363724;32;20281;-57
2021/06/08 10:33:10;;;;;;;4.90;2.75;;;;;;;;;;4357466;32;20614;-58
2021/06/08 10:35:36;;;;;;;3.08;2.30;;;;;;;;;;4363902;32;20665;-59
2021/06/08 10:38:07;;;;;;;4.90;3.00;;;;;;;;;;4364238;32;20343;-57
2021/06/08 10:40:34;;;;;;;3.25;2.92;;;;;;;;;;4365922;32;20265;-58
2021/06/08 10:43:00;;;;;;;3.83;2.80;;;;;;;;;;4365735;32;20281;-62
2021/06/08 10:45:38;;;;;;;3.45;3.10;;;;;;;;;;4362447;32;20523;-58
2021/06/08 10:48:21;;;;;;;7.20;3.50;;;;;;;;;;4380294;32;20279;-58
2021/06/08 10:51:07;;;;;;;4.68;3.03;;;;;;;;;;4370806;32;20301;-58
2021/06/08 10:53:35;;;;;;;4.72;2.78;;;;;;;;;;4360782;32;20234;-58
2021/06/08 10:56:02;;;;;;;6.40;2.58;;;;;;;;;;4363427;32;20236;-57
2021/06/08 10:58:54;;;;;;;4.30;2.62;;;;;;;;;;4366085;32;20252;-58
2021/06/08 11:01:34;;;;;;;4.37;3.10;;;;;;;;;;4363262;32;20261;-57
2021/06/08 11:04:23;;;;;;;4.28;2.72;;;;;;;;;;4372976;32;20670;-58
2021/06/08 11:07:00;;;;;;;7.28;3.10;;;;;;;;;;4361211;32;20860;-58
2021/06/08 11:09:27;;;;;;;4.75;2.95;;;;;;;;;;4370384;32;20214;-58
2021/06/08 11:12:25;;;;;;;2.92;2.62;;;;;;;;;;4370712;32;20370;-59
2021/06/08 11:14:55;;;;;;;7.00;3.17;;;;;;;;;;4366897;32;20242;-58
2021/06/08 11:17:36;;;;;;;4.55;2.97;;;;;;;;;;4365415;32;20317;-59
2021/06/08 11:20:14;;;;;;;6.10;3.33;;;;;;;;;;4360251;32;20784;-58
2021/06/08 11:22:39;;;;;;;4.25;2.55;;;;;;;;;;4367944;32;20670;-58
2021/06/08 11:25:06;;;;;;;4.95;2.70;;;;;;;;;;4367972;32;20412;-58
2021/06/08 11:27:58;;;;;;;7.70;3.33;;;;;;;;;;4365068;32;20297;-58
2021/06/08 11:30:25;;;;;;;9.10;2.92;;;;;;;;;;4367359;32;20636;-58
2021/06/08 11:32:51;;;;;;;13.57;2.70;;;;;;;;;;4362679;32;20217;-58
2021/06/08 11:35:19;;;;;;;3.97;2.83;;;;;;;;;;4371693;32;20328;-59
2021/06/08 11:37:47;;;;;;;2.60;2.40;;;;;;;;;;4359006;32;20312;-58
2021/06/08 11:40:42;;;;;;;5.80;2.55;;;;;;;;;;4359629;32;20245;-59
2021/06/08 11:43:10;;;;;;;3.35;2.75;;;;;;;;;;4368464;32;20244;-58
2021/06/08 11:45:41;;;;;;;4.32;3.10;;;;;;;;;;4361346;32;20286;-58
2021/06/08 11:48:35;;;;;;;4.50;2.67;;;;;;;;;;4373420;32;20291;-59
2021/06/08 11:51:22;;;;;;;3.87;2.80;;;;;;;;;;4373586;32;20281;-59
2021/06/08 11:54:08;;;;;;;5.40;3.30;;;;;;;;;;4366538;32;20242;-59
2021/06/08 11:56:41;;;;;;;5.40;3.08;;;;;;;;;;4368534;32;20710;-57
2021/06/08 11:59:07;;;;;;;15.13;4.20;;;;;;;;;;4365127;32;20309;-56
2021/06/08 12:01:38;;;;;;;44.17;5.80;;;;;;;;;;4364640;32;20329;-57
2021/06/08 12:04:04;;;;;;;9.68;3.87;;;;;;;;;;4367895;32;20268;-57
2021/06/08 12:06:54;;;;;;;7.70;3.33;;;;;;;;;;4358075;32;20227;-58
2021/06/08 12:09:20;;;;;;;3.62;3.03;;;;;;;;;;4359513;32;20668;-58
2021/06/08 12:11:47;;;;;;;7.68;2.50;;;;;;;;;;4367888;32;20214;-58
2021/06/08 12:14:13;;;;;;;3.12;2.83;;;;;;;;;;4364614;32;20225;-57
2021/06/08 12:16:39;;;;;;;2.75;2.47;;;;;;;;;;4358918;32;20325;-57
2021/06/08 12:19:08;;;;;;;6.32;3.03;;;;;;;;;;4368985;32;20278;-57
2021/06/08 12:21:33;;;;;;;3.78;2.90;;;;;;;;;;4361260;32;20285;-58
2021/06/08 12:24:00;;;;;;;33.20;6.03;;;;;;;;;;4373628;32;20292;-57
2021/06/08 12:26:26;;;;;;;22.25;4.25;;;;;;;;;;4358636;32;20342;-58
2021/06/08 12:29:05;;;;;;;12.05;3.70;;;;;;;;;;4360392;32;20306;-56
2021/06/08 12:31:31;;;;;;;7.37;2.90;;;;;;;;;;4364941;32;20345;-57
2021/06/08 12:33:58;;;;;;;25.15;4.75;;;;;;;;;;4368538;32;20359;-59
2021/06/08 12:36:24;;;;;;;9.73;3.37;;;;;;;;;;4363140;32;20226;-59
2021/06/08 12:38:53;;;;;;;4.03;2.85;;;;;;;;;;4364063;32;20260;-58
2021/06/08 12:41:26;;;;;;;5.07;3.30;;;;;;;;;;4359478;32;20236;-59
2021/06/08 12:43:55;;;;;;;5.97;3.55;;;;;;;;;;4366730;32;20218;-59
2021/06/08 12:46:30;;;;;;;12.27;4.03;;;;;;;;;;4361259;32;20219;-58
2021/06/08 12:49:09;;;;;;;30.52;6.03;;;;;;;;;;4362125;32;20319;-59
2021/06/08 12:51:55;;;;;;;18.62;6.35;;;;;;;;;;4367840;32;20378;-59
2021/06/08 12:54:38;;;;;;;11.73;4.75;;;;;;;;;;4357532;32;20356;-60
2021/06/08 12:57:10;;;;;;;9.75;5.28;;;;;;;;;;4361879;32;20245;-58
2021/06/08 12:59:49;;;;;;;12.13;6.25;;;;;;;;;;4360018;32;20289;-59
2021/06/08 13:02:15;;;;;;;19.10;7.97;;;;;;;;;;4357732;32;20283;-58
2021/06/08 13:04:43;;;;;;;10.18;5.80;;;;;;;;;;4362107;32;20214;-58
2021/06/08 13:07:14;;;;;;;9.07;5.22;;;;;;;;;;4360223;32;20445;-58
2021/06/08 13:09:40;;;;;;;23.95;6.35;;;;;;;;;;4358677;32;20223;-58
2021/06/08 13:12:11;;;;;;;7.53;4.28;;;;;;;;;;4358531;32;20222;-58
2021/06/08 13:14:37;;;;;;;7.32;4.30;;;;;;;;;;4362348;32;20229;-58
2021/06/08 13:17:38;;;;;;;9.00;4.43;;;;;;;;;;4364419;32;20302;-58
2021/06/08 13:20:27;;;;;;;5.62;3.70;;;;;;;;;;4330440;33;20260;-57
2021/06/08 13:22:53;;;;;;;6.60;3.75;;;;;;;;;;4357602;32;20267;-60
2021/06/08 13:25:20;;;;;;;9.15;4.82;;;;;;;;;;4360926;32;20269;-61
2021/06/08 13:27:46;;;;;;;9.32;4.90;;;;;;;;;;4357032;32;20437;-58
2021/06/08 13:30:19;;;;;;;5.30;4.43;;;;;;;;;;4356566;32;20294;-59
2021/06/08 13:32:44;;;;;;;12.30;3.92;;;;;;;;;;4365809;32;20255;-59
2021/06/08 13:35:18;;;;;;;7.37;3.35;;;;;;;;;;4362408;32;20213;-58
2021/06/08 13:37:58;;;;;;;8.48;4.53;;;;;;;;;;4382296;32;20725;-59
2021/06/08 13:40:29;;;;;;;7.45;4.15;;;;;;;;;;4358156;32;20284;-59
2021/06/08 13:43:07;;;;;;;7.97;3.00;;;;;;;;;;4358994;32;20347;-58
2021/06/08 13:45:46;;;;;;;6.15;4.05;;;;;;;;;;4364505;32;20322;-59
2021/06/08 13:48:34;;;;;;;4.57;3.60;;;;;;;;;;4365542;32;20202;-57
2021/06/08 13:51:14;;;;;;;2.95;2.65;;;;;;;;;;4371742;32;20540;-59
2021/06/08 13:54:01;;;;;;;5.97;3.72;;;;;;;;;;4365997;32;20246;-57
2021/06/08 13:56:35;;;;;;;2.83;2.55;;;;;;;;;;4370241;32;20293;-58
2021/06/08 14:01:57;;;;;;;3.30;3.00;;;;;;;;;;4364763;32;20328;-59
2021/06/08 14:04:25;;;;;;;4.65;3.22;;;;;;;;;;4359115;32;20296;-59
2021/06/08 14:06:57;;;;;;;6.18;3.35;;;;;;;;;;4365501;32;20613;-59
2021/06/08 14:09:24;;;;;;;3.45;2.95;;;;;;;;;;4367128;32;20378;-58
2021/06/08 14:11:52;;;;;;;3.75;2.78;;;;;;;;;;4366135;32;20226;-59
2021/06/08 14:14:28;;;;;;;4.10;2.85;;;;;;;;;;4361170;32;20311;-59
2021/06/08 14:16:53;;;;;;;4.45;3.22;;;;;;;;;;4366823;32;20229;-59
2021/06/08 14:19:19;;;;;;;11.57;2.37;;;;;;;;;;4369860;32;20620;-59
2021/06/08 14:21:46;;;;;;;3.28;2.53;;;;;;;;;;4373123;32;20293;-59
2021/06/08 14:24:17;;;;;;;7.53;2.90;;;;;;;;;;4361260;32;20285;-59
2021/06/08 14:26:43;;;;;;;5.53;2.45;;;;;;;;;;4373040;32;20317;-58
2021/06/08 14:29:09;;;;;;;3.60;2.80;;;;;;;;;;4360035;32;20249;-59
2021/06/08 14:31:36;;;;;;;2.87;2.55;;;;;;;;;;4371031;32;20331;-58
2021/06/08 14:34:02;;;;;;;4.57;2.72;;;;;;;;;;4367799;32;20237;-60
2021/06/08 14:36:30;;;;;;;6.30;3.60;;;;;;;;;;4361990;32;20336;-61
2021/06/08 14:38:59;;;;;;;14.93;3.47;;;;;;;;;;4373144;32;20571;-61
2021/06/08 14:41:25;;;;;;;5.60;2.83;;;;;;;;;;4369965;32;20305;-61
2021/06/08 14:43:50;;;;;;;4.95;3.22;;;;;;;;;;4357026;32;20350;-61
2021/06/08 14:46:16;;;;;;;3.10;2.80;;;;;;;;;;4359412;32;20254;-61
2021/06/08 14:48:41;;;;;;;5.00;2.60;;;;;;;;;;4359355;32;20391;-60
2021/06/08 14:51:07;;;;;;;3.55;2.30;;;;;;;;;;4365672;32;20296;-60
2021/06/08 14:53:33;;;;;;;8.10;2.87;;;;;;;;;;4358080;32;20265;-60
2021/06/08 14:55:59;;;;;;;2.95;2.37;;;;;;;;;;4358579;32;20327;-60